Главная страница
METAR-TAF:

METAR-TAF

Аэропорты :

Пальма-де-Мальорка

Пальма, Испания

широта: 39-33N, долгота: 002-44E, высота над уровнем моря: 4 м

Текущие метеонаблюдения

Эта сводка был подготовлена 16 минут назад, в 18:30 UTC
Ветер 7 Узел от восточно-северо-восточный
Температура 18°C
Влажность 94%
Давление 1018 hPa
Видимость 10 км и более
Отдельные облака на высоте 1800 фута

METAR: LEPA 151830Z 07007KT 9999 SCT018 18/17 Q1018 NOSIG

Время: 19:46 (18:46 UTC)

Прогноз

Эта сводка был подготовлена 1 час и 46 минут назад, в 17:00 UTC
Прогноз действительный с 15-го 18 UTC до 16-го 18 UTC
Ветер 7 Узел от северо-восточный
Видимость 10 км и более
Отдельные облака на высоте 2000 фута
Вероятность 30% :
временами
С 15-го 18 UTC до 16-го 18 UTC
Видимость: 4000 м
Рассеянная облачность на высоте 1800 фута
небольшая облачность на высоте 2000 фута, мощно-кучевые.
ливневые дожди

TAF: LEPA 151700Z 1518/1618 05007KT 9999 SCT020 TX20/1612Z TN11/1606Z PROB30 TEMPO 1518/1618 4000 SHRA BKN018 FEW020TCU

Метеонаблюдения и прогнозы для более 4000 аэропортов (сводки METAR и TAF).

Имеющиеся станции представлены на карте желтыми и красными точками.

Чтобы увидеть название станции, наведите на нее мышь.

Затем щелкните, чтобы увидеть метеонаблюдения и метеопрогнозы.

Управление картой: чтобы увеличить масштаб, щелкните зеленые кнопки с черным крестиком; чтобы уменьшить масштаб, щелкните зеленую кнопку с тире; для просмотра соседних карт щелкайте зеленые стрелки.


METAR-TAF: